Time;durP1;ratioP1;P1;durP2;ratioP2;P2;SDS_P1;SDS_P2;PMS_P1;PMS_P2;Temp;Humidity;BMP_temperature;BMP_pressure;BME280_temperature;BME280_humidity;BME280_pressure;Samples;Min_cycle;Max_cycle;Signal;HPM_P1;HPM_P2
2023/11/02 00:01:11;;;;;;;2.97;0.60;;;7.60;99.90;;;-144.05;73.65;56969.91;5013063;28;20099;-79
2023/11/02 00:03:41;;;;;;;2.80;0.93;;;;;;;-144.05;73.54;57012.38;5012900;28;20022;-79
2023/11/02 00:06:23;;;;;;;1.67;0.65;;;7.20;99.90;;;-144.05;73.21;56974.16;5012550;28;20501;-79
2023/11/02 00:09:06;;;;;;;3.00;0.90;;;7.50;99.90;;;-144.05;73.32;56978.41;5012505;28;20026;-79
2023/11/02 00:12:02;;;;;;;3.08;0.90;;;8.50;99.90;;;-144.05;73.95;56999.63;5012551;28;20106;-78
2023/11/02 00:14:43;;;;;;;3.03;0.60;;;7.20;99.90;;;-144.05;73.32;56980.53;5012183;28;20064;-78
2023/11/02 00:17:31;;;;;;;3.13;0.50;;;10.70;99.90;;;-144.05;73.99;56972.03;4994961;28;20536;-77
2023/11/02 00:19:58;;;;;;;3.70;0.90;;;14.80;99.90;;;-144.05;73.20;56999.63;5007280;28;20033;-79
2023/11/02 00:22:27;;;;;;;2.92;0.80;;;;;;;-144.05;73.82;57001.75;5012277;28;20026;-79
2023/11/02 00:25:01;;;;;;;5.78;0.63;;;8.30;99.90;;;-144.05;74.07;56999.63;5012215;28;20037;-78
2023/11/02 00:27:28;;;;;;;2.35;0.70;;;;;;;-144.05;73.89;57010.25;5012305;28;20034;-79
2023/11/02 00:29:54;;;;;;;4.25;1.55;;;15.40;99.90;;;-144.05;73.50;57020.88;5012178;28;20034;-79
2023/11/02 00:32:21;;;;;;;1.50;0.50;;;;;;;-144.05;73.20;56993.25;5012283;28;20069;-78
2023/11/02 00:34:47;;;;;;;4.40;1.65;;;;;;;-144.05;72.94;57012.38;5012045;28;20109;-79
2023/11/02 00:37:13;;;;;;;4.85;0.95;;;;;;;-144.05;72.95;57003.88;5012140;28;20030;-78
2023/11/02 00:39:39;;;;;;;3.63;0.60;;;;;;;-144.05;72.63;56986.91;5012324;28;20026;-79
2023/11/02 00:42:06;;;;;;;4.82;0.73;;;7.10;99.90;;;-144.05;72.63;56991.13;5012046;28;20215;-78
2023/11/02 00:44:33;;;;;;;4.28;0.90;;;;;;;-144.05;72.44;56989.00;5012340;28;20033;-79
2023/11/02 00:47:00;;;;;;;2.97;0.60;;;15.00;99.90;;;-144.05;72.85;56980.53;5012330;28;20034;-78
2023/11/02 00:49:37;;;;;;;1.88;0.50;;;8.70;99.90;;;-144.05;72.78;56963.53;5011890;28;20052;-79
2023/11/02 00:52:05;;;;;;;3.80;0.57;;;14.90;99.90;;;-144.05;72.13;56976.28;5012075;28;20099;-79
2023/11/02 00:55:00;;;;;;;2.15;0.57;;;11.20;99.90;;;-144.05;71.96;57006.00;5010515;28;20040;-79
2023/11/02 00:57:39;;;;;;;2.15;0.63;;;10.90;99.90;;;-144.05;72.06;56980.53;5011792;28;20034;-78
2023/11/02 01:00:07;;;;;;;3.05;0.70;;;7.90;99.90;;;-144.05;71.92;57012.38;5011713;28;20025;-78
2023/11/02 01:02:36;;;;;;;4.10;0.70;;;8.00;99.90;;;-144.05;71.88;56991.13;5011689;28;20480;-79
2023/11/02 01:05:05;;;;;;;3.10;0.52;;;7.80;99.90;;;-144.05;71.96;57020.88;5011684;28;20037;-78
2023/11/02 01:07:33;;;;;;;4.35;0.60;;;8.60;99.90;;;-144.05;71.47;56967.78;5011931;28;20398;-79
2023/11/02 01:10:04;;;;;;;1.33;0.63;;;10.90;99.90;;;-144.05;71.65;57014.50;5011607;28;20117;-78
2023/11/02 01:12:35;;;;;;;3.50;0.68;;;;;;;-144.05;71.49;56967.78;5011481;28;20022;-78
2023/11/02 01:15:08;;;;;;;1.27;0.73;;;11.00;99.90;;;-144.05;71.81;56999.63;5011517;28;20049;-79
2023/11/02 01:17:40;;;;;;;3.85;0.60;;;11.00;99.90;;;-144.05;71.64;57016.63;5011462;28;20026;-80
2023/11/02 01:20:33;;;;;;;1.38;0.50;;;;;;;-144.05;71.26;57008.13;5011730;28;20084;-78
2023/11/02 01:23:06;;;;;;;2.28;0.68;;;11.20;99.90;;;-144.05;71.23;56978.41;5011365;28;20034;-78
2023/11/02 01:25:42;;;;;;;1.83;0.60;;;15.10;99.90;;;-144.05;71.09;56989.00;5011199;28;20042;-78
2023/11/02 01:28:15;;;;;;;1.60;0.55;;;7.70;99.90;;;-144.05;70.13;56965.66;5011574;28;20088;-77
2023/11/02 01:30:41;;;;;;;2.40;0.70;;;7.50;99.90;;;-144.05;69.99;56978.41;5012681;28;20471;-79
2023/11/02 01:33:36;;;;;;;2.75;0.70;;;7.40;99.90;;;-144.05;69.93;56993.25;4996075;28;20026;-78
2023/11/02 01:36:05;;;;;;;3.03;0.52;;;7.70;99.90;;;-144.05;69.68;56984.78;5013649;28;20030;-81
2023/11/02 01:38:33;;;;;;;3.00;0.85;;;7.80;99.90;;;-144.05;69.21;56999.63;5012612;28;20042;-80
2023/11/02 01:41:33;;;;;;;4.68;0.90;;;15.10;99.90;;;-144.05;68.99;56974.16;5012003;28;20025;-78
2023/11/02 01:44:25;;;;;;;3.75;0.70;;;7.20;99.90;;;-144.05;68.74;56969.91;5024060;28;20044;-80
2023/11/02 01:47:18;;;;;;;3.50;0.57;;;11.40;99.90;;;-144.05;68.43;56993.25;5031695;28;20061;-81
2023/11/02 01:50:08;;;;;;;3.72;0.60;;;15.30;99.90;;;-144.05;68.60;56991.13;5027895;28;20037;-81
2023/11/02 01:53:06;;;;;;;4.25;0.80;;;11.40;99.90;;;-144.05;68.49;56986.91;5015886;28;20113;-79
2023/11/02 01:56:07;;;;;;;3.45;0.73;;;15.20;99.90;;;-144.05;68.69;56999.63;5012534;28;20034;-81
2023/11/02 01:59:11;;;;;;;2.45;1.02;;;7.50;99.90;;;-144.05;68.76;57003.88;5013024;28;20084;-81
2023/11/02 02:01:56;;;;;;;2.25;0.75;;;;;;;-144.05;69.22;57003.88;5005094;28;20022;-81
2023/11/02 02:04:53;;;;;;;1.08;0.68;;;11.50;99.90;;;-144.05;69.09;56986.91;5013186;28;20491;-80
2023/11/02 02:07:49;;;;;;;2.05;0.52;;;11.30;99.90;;;-144.05;68.87;56965.66;5016704;28;20096;-79
2023/11/02 02:10:46;;;;;;;2.10;0.80;;;7.70;99.90;;;-144.05;68.75;56982.66;5015028;28;20018;-79
2023/11/02 02:14:05;;;;;;;0.95;0.63;;;15.30;99.90;;;-144.05;69.25;56995.38;5011568;28;20091;-77
2023/11/02 02:17:18;;;;;;;3.42;1.40;;;11.30;99.90;;;-144.05;70.04;56969.91;5015013;28;20060;-78
2023/11/02 02:19:59;;;;;;;5.30;1.00;;;8.10;99.90;;;-144.05;69.47;56980.53;5014858;28;20030;-79
2023/11/02 02:22:36;;;;;;;2.85;0.80;;;8.40;99.90;;;-144.05;69.76;56969.91;5014691;28;20581;-79
2023/11/02 02:25:28;;;;;;;4.22;1.05;;;7.50;99.90;;;-144.05;70.12;56986.91;5014753;28;20034;-78
2023/11/02 02:28:26;;;;;;;3.55;0.73;;;7.60;99.90;;;-144.05;69.67;56976.28;5014517;28;20022;-79
2023/11/02 02:31:20;;;;;;;5.18;0.98;;;;;;;-144.05;69.88;56978.41;5014569;28;20553;-78
2023/11/02 02:34:20;;;;;;;3.55;0.70;;;7.50;99.90;;;-144.05;69.44;56995.38;5014700;28;20040;-77
2023/11/02 02:37:16;;;;;;;5.03;0.70;;;7.50;99.90;;;-144.05;69.44;56978.41;5007896;28;20025;-78
2023/11/02 02:39:54;;;;;;;1.33;0.73;;;15.20;99.90;;;-144.05;69.72;56986.91;5014441;28;20042;-77
2023/11/02 02:42:23;;;;;;;4.75;1.20;;;7.80;99.90;;;-144.05;70.66;56986.91;4996765;28;20141;-78
2023/11/02 02:44:55;;;;;;;7.85;1.10;;;8.10;99.90;;;-144.05;70.71;57012.38;5014357;28;20040;-77
2023/11/02 02:47:26;;;;;;;2.42;0.80;;;11.30;99.90;;;-144.05;70.27;56969.91;5014308;28;20032;-78
2023/11/02 02:49:54;;;;;;;6.25;1.17;;;7.40;99.90;;;-144.05;70.62;56978.41;4996811;28;20030;-79
2023/11/02 02:52:22;;;;;;;4.75;1.30;;;7.70;99.90;;;-144.05;70.18;56950.78;5014213;28;20041;-79
2023/11/02 02:54:53;;;;;;;3.22;0.93;;;7.90;99.90;;;-144.05;69.43;56974.16;5014056;28;20060;-78
2023/11/02 02:57:23;;;;;;;8.55;1.52;;;8.30;99.90;;;-144.05;70.89;56995.38;5013953;28;20025;-78
2023/11/02 02:59:59;;;;;;;2.75;0.93;;;11.40;99.90;;;-144.05;70.55;56969.91;5014056;28;20076;-78
2023/11/02 03:02:34;;;;;;;4.55;1.05;;;15.20;99.90;;;-144.05;70.63;56991.13;4996399;28;20117;-78
2023/11/02 03:05:04;;;;;;;3.58;0.90;;;8.20;99.90;;;-144.05;70.17;56999.63;5014010;28;20026;-77
2023/11/02 03:07:31;;;;;;;2.53;0.90;;;11.40;99.90;;;-144.05;69.78;56969.91;5014184;28;20075;-78
2023/11/02 03:10:05;;;;;;;3.67;1.10;;;15.20;99.90;;;-144.05;69.92;56957.16;5013909;28;20022;-78
2023/11/02 03:12:36;;;;;;;5.55;0.90;;;15.30;99.90;;;-144.05;69.52;56984.78;5013992;28;20380;-78
2023/11/02 03:15:08;;;;;;;3.17;1.25;;;7.40;99.90;;;-144.05;69.41;56961.41;5014024;28;20034;-78
2023/11/02 03:18:08;;;;;;;4.05;1.23;;;11.00;99.90;;;-144.05;69.68;56974.16;5012749;28;20434;-78
2023/11/02 03:20:35;;;;;;;2.42;0.52;;;;;;;-144.05;69.17;57001.75;5009509;28;20049;-80
2023/11/02 03:23:28;;;;;;;6.85;1.08;;;8.10;99.90;;;-144.05;69.01;56984.78;5014022;28;20207;-78
2023/11/02 03:26:50;;;;;;;3.10;1.15;;;15.50;99.90;;;-144.05;69.27;56982.66;5014594;28;20049;-79
2023/11/02 03:30:04;;;;;;;4.88;0.77;;;7.40;99.90;;;-144.05;69.33;56972.03;5004466;28;20042;-78
2023/11/02 03:33:05;;;;;;;7.65;1.45;;;15.20;99.90;;;-144.05;68.92;56972.03;5014562;28;20379;-77
2023/11/02 03:36:15;;;;;;;9.30;0.95;;;8.10;99.90;;;-144.05;68.25;56989.00;4996684;28;20117;-79
2023/11/02 03:39:29;;;;;;;6.80;0.82;;;8.20;99.90;;;-144.05;69.43;56986.91;5014851;28;20022;-79
2023/11/02 03:42:51;;;;;;;2.45;0.82;;;15.50;99.90;;;-144.05;68.08;57008.13;5014071;28;20038;-78
2023/11/02 03:46:10;;;;;;;5.50;1.55;;;15.50;99.90;;;-144.05;68.13;56989.00;4977920;28;20491;-77
2023/11/02 03:49:10;;;;;;;3.92;0.90;;;11.70;99.90;;;-144.05;68.02;56978.41;5013260;28;20418;-79
2023/11/02 03:52:16;;;;;;;3.67;0.70;;;8.00;99.90;;;-144.05;68.71;57006.00;5013262;28;20054;-78
2023/11/02 03:55:31;;;;;;;2.55;0.80;;;8.20;99.90;;;-144.05;68.68;56969.91;5013547;28;20122;-77
2023/11/02 03:58:32;;;;;;;2.40;0.75;;;15.00;99.90;;;-144.05;68.70;56974.16;5013534;28;20034;-78
2023/11/02 04:01:20;;;;;;;2.58;0.70;;;7.80;99.90;;;-144.05;69.05;56989.00;5013367;28;20022;-79
2023/11/02 04:03:56;;;;;;;3.95;0.70;;;11.60;99.90;;;-144.05;68.77;56980.53;5007104;28;20040;-78
2023/11/02 04:06:51;;;;;;;2.60;0.60;;;11.60;99.90;;;-144.05;68.81;56999.63;5012711;28;20431;-79
2023/11/02 04:09:21;;;;;;;4.85;1.10;;;8.40;99.90;;;-144.05;69.16;57003.88;5013416;28;20516;-78
2023/11/02 04:12:26;;;;;;;2.00;1.02;;;11.70;99.90;;;-144.05;68.93;56982.66;5013370;28;20104;-76
2023/11/02 04:14:59;;;;;;;5.22;0.65;;;11.70;99.90;;;-144.05;68.05;56978.41;5006769;28;20073;-78
2023/11/02 04:17:28;;;;;;;5.88;0.98;;;8.10;99.90;;;-144.05;69.11;56995.38;4996169;28;20026;-82
2023/11/02 04:19:55;;;;;;;3.58;0.82;;;7.40;99.90;;;-144.05;68.40;57001.75;5016497;28;20026;-83
2023/11/02 04:22:21;;;;;;;6.78;1.00;;;;;;;-144.05;68.13;56976.28;5016263;28;20037;-80
2023/11/02 04:24:48;;;;;;;2.97;1.00;;;;;;;-144.05;67.82;56980.53;5016382;28;20030;-79
2023/11/02 04:27:14;;;;;;;4.45;0.80;;;7.80;99.90;;;-144.05;68.62;56982.66;5020896;28;20101;-82
2023/11/02 04:29:40;;;;;;;2.65;0.80;;;;;;;-144.05;67.87;57023.00;5020930;28;20058;-81
2023/11/02 04:32:06;;;;;;;1.75;0.70;;;8.10;99.90;;;-144.05;68.18;56984.78;5019822;28;20091;-81
2023/11/02 04:34:33;;;;;;;1.80;0.80;;;;;;;-144.05;67.81;56993.25;5021444;28;20030;-80
2023/11/02 04:36:59;;;;;;;4.43;0.70;;;;;;;-144.05;67.59;56995.38;5023575;28;20036;-80
2023/11/02 04:39:25;;;;;;;5.15;0.88;;;;;;;-144.05;66.51;56989.00;5020440;28;20033;-78
2023/11/02 04:41:51;;;;;;;3.72;0.88;;;7.90;99.90;;;-144.05;66.46;56989.00;5012265;28;20492;-76
2023/11/02 04:44:18;;;;;;;3.03;0.60;;;;;;;-144.05;66.33;56974.16;5012533;28;20078;-77
2023/11/02 04:46:44;;;;;;;3.60;1.00;;;8.20;99.90;;;-144.05;65.78;57003.88;5012169;28;20030;-79
2023/11/02 04:49:10;;;;;;;4.30;0.75;;;8.20;99.90;;;-144.05;65.78;56952.91;5012579;28;20080;-78
2023/11/02 04:51:36;;;;;;;6.75;0.85;;;15.20;99.90;;;-144.05;65.14;56989.00;5012486;28;20022;-80
2023/11/02 04:54:02;;;;;;;2.95;0.68;;;7.70;99.90;;;-144.05;65.09;57003.88;5011917;28;20037;-79
2023/11/02 04:56:27;;;;;;;4.78;0.65;;;15.40;99.90;;;-144.05;65.02;56965.66;5011961;28;20034;-79
2023/11/02 04:58:54;;;;;;;2.30;0.80;;;;;;;-144.05;65.32;56969.91;4994306;28;20129;-81
2023/11/02 05:01:21;;;;;;;4.22;0.85;;;;;;;-144.05;64.35;56984.78;5011584;28;20041;-80
2023/11/02 05:03:47;;;;;;;2.42;0.70;;;;;;;-144.05;63.65;57006.00;5011878;28;20041;-79
2023/11/02 05:06:16;;;;;;;2.80;0.70;;;;;;;-144.05;64.29;57018.75;5011725;28;20026;-78
2023/11/02 05:08:42;;;;;;;2.30;0.50;;;8.40;99.90;;;-144.05;64.16;57001.75;4994726;28;20088;-77
2023/11/02 05:11:08;;;;;;;3.63;1.00;;;8.10;99.90;;;-144.05;65.19;56944.41;5011883;28;20026;-78
2023/11/02 05:13:33;;;;;;;5.05;1.15;;;7.50;99.90;;;-144.05;65.56;56995.38;5011722;28;20579;-79
2023/11/02 05:15:59;;;;;;;2.33;0.57;;;7.60;99.90;;;-144.05;66.09;56986.91;5011738;28;20448;-78
2023/11/02 05:18:25;;;;;;;2.50;1.00;;;;;;;-144.05;65.75;57006.00;5011439;28;20030;-78
2023/11/02 05:20:57;;;;;;;3.92;0.77;;;;;;;-144.05;65.33;56967.78;5012284;28;20033;-78
2023/11/02 05:23:24;;;;;;;5.00;0.65;;;8.40;99.90;;;-144.05;64.60;57003.88;5011438;28;20022;-78
2023/11/02 05:25:50;;;;;;;4.65;0.90;;;;;;;-144.05;64.59;56984.78;5011583;28;20050;-78
2023/11/02 05:28:16;;;;;;;2.55;0.70;;;;;;;-144.05;63.97;56989.00;4993816;28;20084;-79
2023/11/02 05:30:43;;;;;;;4.57;0.95;;;8.60;99.90;;;-144.05;63.91;56993.25;5011318;28;20703;-78
2023/11/02 05:33:09;;;;;;;6.13;0.73;;;;;;;-144.05;63.91;57003.88;5011459;28;20527;-82
2023/11/02 05:35:35;;;;;;;2.40;0.70;;;8.10;99.90;;;-144.05;63.54;56978.41;5011343;28;20032;-80
2023/11/02 05:38:01;;;;;;;5.90;1.70;;;;;;;-144.05;63.73;56984.78;5011443;28;20030;-78
2023/11/02 05:40:27;;;;;;;3.42;0.60;;;8.30;99.90;;;-144.05;63.74;56961.41;5010532;28;20033;-78
2023/11/02 05:42:52;;;;;;;3.15;0.70;;;8.60;99.90;;;-144.05;64.11;57010.25;5011452;28;20029;-80
2023/11/02 05:45:21;;;;;;;5.45;0.80;;;;;;;-144.05;63.67;56952.91;5011087;28;20197;-81
2023/11/02 05:47:47;;;;;;;4.00;0.85;;;;;;;-144.05;63.76;57006.00;5011360;28;20037;-79
2023/11/02 05:50:13;;;;;;;1.92;0.55;;;15.20;99.90;;;-144.05;63.91;56976.28;5011237;28;20053;-78
2023/11/02 05:52:39;;;;;;;3.25;0.43;;;8.20;99.90;;;-144.05;63.73;56984.78;4993577;28;20034;-79
2023/11/02 05:55:06;;;;;;;3.58;0.60;;;15.30;99.90;;;-144.05;63.92;56995.38;5011281;28;20446;-77
2023/11/02 05:57:33;;;;;;;3.00;0.50;;;;;;;-144.05;62.95;56982.66;5012513;28;20111;-78
2023/11/02 05:59:59;;;;;;;3.50;0.60;;;;;;;-144.05;62.62;56989.00;5011191;28;20055;-79
2023/11/02 06:02:28;;;;;;;3.45;0.60;;;;;;;-144.05;62.29;57012.38;5011215;28;20026;-78
2023/11/02 06:04:53;;;;;;;2.35;0.63;;;8.10;99.90;;;-144.05;62.43;56946.53;4993543;28;20036;-78
2023/11/02 06:07:20;;;;;;;1.65;0.57;;;;;;;-144.05;62.06;56997.50;4993698;28;20033;-78
2023/11/02 06:09:46;;;;;;;3.03;0.82;;;;;;;-144.05;61.81;57008.13;5012158;28;20080;-82
2023/11/02 06:12:12;;;;;;;3.17;0.57;;;8.10;99.90;;;-144.05;62.06;56993.25;5011160;28;20029;-79
2023/11/02 06:14:38;;;;;;;1.48;0.50;;;;;;;-144.05;62.11;56978.41;5010896;28;20122;-82
2023/11/02 06:17:04;;;;;;;3.33;0.60;;;8.40;99.90;;;-144.05;62.41;56974.16;5012049;28;20436;-83
2023/11/02 06:19:30;;;;;;;3.13;0.57;;;;;;;-144.05;61.99;56989.00;5013244;28;20053;-81
2023/11/02 06:21:57;;;;;;;2.85;0.98;;;;;;;-144.05;62.59;56997.50;5013437;28;20515;-80
2023/11/02 06:24:23;;;;;;;3.08;0.68;;;;;;;-144.05;62.09;56986.91;5013599;28;20030;-80
2023/11/02 06:26:49;;;;;;;2.42;0.60;;;8.60;99.90;;;-144.05;62.68;56972.03;5014286;28;20054;-81
2023/11/02 06:29:15;;;;;;;3.80;0.63;;;15.30;99.90;;;-144.05;62.51;57006.00;5014463;28;20034;-81
2023/11/02 06:31:41;;;;;;;0.93;0.43;;;8.50;99.90;;;-144.05;62.89;57001.75;4997073;28;20054;-79
2023/11/02 06:34:07;;;;;;;2.40;0.50;;;;;;;-144.05;62.81;56989.00;5013970;28;20029;-80
2023/11/02 06:36:33;;;;;;;5.50;1.08;;;;;;;-144.05;62.98;56999.63;5013726;28;20109;-80
2023/11/02 06:38:59;;;;;;;1.95;0.35;;;9.20;99.90;;;-144.05;63.87;56986.91;5014569;28;20022;-80
2023/11/02 06:41:25;;;;;;;3.75;0.65;;;8.40;99.90;;;-144.05;63.16;56984.78;5015482;28;20030;-82
2023/11/02 06:43:51;;;;;;;0.75;0.40;;;;;;;-144.05;63.51;57010.25;5014604;28;20062;-82
2023/11/02 06:46:17;;;;;;;2.88;0.60;;;8.50;99.90;;;-144.05;63.30;56978.41;4996772;28;20056;-80
2023/11/02 06:48:43;;;;;;;1.65;0.40;;;8.80;99.90;;;-144.05;63.32;56978.41;5014252;28;20029;-79
2023/11/02 06:51:10;;;;;;;2.42;0.60;;;8.60;99.90;;;-144.05;63.65;56978.41;4998131;28;20107;-81
2023/11/02 06:53:36;;;;;;;1.77;0.65;;;8.60;99.90;;;-144.05;63.75;56997.50;5018280;28;20387;-80
2023/11/02 06:56:02;;;;;;;1.63;0.63;;;9.10;99.90;;;-144.05;63.64;57006.00;5017976;28;20033;-79
2023/11/02 06:58:28;;;;;;;4.00;0.82;;;;;;;-144.05;63.40;57025.13;5017985;28;20053;-77
2023/11/02 07:00:56;;;;;;;1.67;0.47;;;;;;;-144.05;63.72;56976.28;5017221;28;20036;-78
2023/11/02 07:03:23;;;;;;;2.83;0.43;;;15.30;99.90;;;-144.05;62.90;56978.41;5016225;28;20040;-79
2023/11/02 07:05:49;;;;;;;3.65;0.70;;;;;;;-144.05;62.99;56986.91;5017040;28;20034;-80
2023/11/02 07:08:15;;;;;;;3.97;0.70;;;9.70;99.90;;;-144.05;63.14;56972.03;5013978;28;20049;-83
2023/11/02 07:10:41;;;;;;;1.02;0.70;;;9.10;99.90;;;-144.05;63.70;56952.91;5015979;28;20021;-82
2023/11/02 07:13:08;;;;;;;3.00;0.60;;;;;;;-144.05;63.82;56986.91;5032145;28;20061;-78
2023/11/02 07:15:34;;;;;;;2.05;0.40;;;;;;;-144.05;63.69;56993.25;5018317;28;20030;-80
2023/11/02 07:18:00;;;;;;;2.85;0.55;;;15.50;99.90;;;-144.05;63.79;56974.16;5016901;28;20305;-82
2023/11/02 07:20:27;;;;;;;2.20;0.65;;;;;;;-144.05;63.55;56984.78;4999251;28;20033;-79
2023/11/02 07:22:52;;;;;;;3.30;0.65;;;8.70;99.90;;;-144.05;63.93;57006.00;5016318;28;20030;-79
2023/11/02 07:25:18;;;;;;;1.80;0.80;;;9.00;99.90;;;-144.05;63.79;56965.66;5016086;28;20026;-81
2023/11/02 07:27:44;;;;;;;3.10;0.47;;;14.90;99.90;;;-144.05;63.96;56965.66;5016572;28;20033;-78
2023/11/02 07:30:11;;;;;;;3.33;0.38;;;15.40;99.90;;;-144.05;64.45;56991.13;5016208;28;20037;-82
2023/11/02 07:32:37;;;;;;;3.40;0.60;;;;;;;-144.05;63.93;57016.63;4998599;28;20403;-79
2023/11/02 07:35:04;;;;;;;1.60;0.52;;;;;;;-144.05;65.39;56967.78;5016018;28;20033;-80
2023/11/02 07:37:29;;;;;;;2.67;0.40;;;8.60;99.90;;;-144.05;68.32;56984.78;5015205;28;20030;-79
2023/11/02 07:39:56;;;;;;;3.53;0.77;;;;;;;-144.05;70.73;56965.66;5015418;28;20034;-78
2023/11/02 07:42:22;;;;;;;1.92;0.73;;;15.50;99.90;;;-144.05;71.71;56976.28;4997623;28;20364;-78
2023/11/02 07:44:48;;;;;;;2.50;0.47;;;;;;;-144.05;72.38;57001.75;5014945;28;20479;-79
2023/11/02 07:47:14;;;;;;;1.35;0.40;;;;;;;-144.05;73.27;57006.00;5014999;28;20034;-81
2023/11/02 07:49:40;;;;;;;3.15;0.40;;;7.80;99.90;;;-144.05;74.03;56986.91;5015447;28;20037;-81
2023/11/02 07:52:07;;;;;;;1.42;0.47;;;11.60;99.90;;;-144.05;74.68;56997.50;5015089;28;20030;-79
2023/11/02 07:54:39;;;;;;;3.90;0.85;;;8.10;99.90;;;-144.05;74.26;57010.25;5015188;28;20053;-82
2023/11/02 07:57:09;;;;;;;0.90;0.55;;;8.20;99.90;;;-144.05;75.86;56989.00;5015597;28;20030;-81
2023/11/02 07:59:38;;;;;;;3.00;0.98;;;8.60;99.90;;;-144.05;77.66;56995.38;5015790;28;20427;-80
2023/11/02 08:02:05;;;;;;;1.63;0.60;;;8.60;99.90;;;-144.05;78.42;57014.50;5015336;28;20101;-84
2023/11/02 08:04:31;;;;;;;1.13;0.40;;;8.00;99.90;;;-144.05;79.02;56982.66;5014943;28;20049;-81
2023/11/02 08:06:58;;;;;;;0.95;0.35;;;;;;;-144.05;78.11;56984.78;5015860;28;20034;-81
2023/11/02 08:09:24;;;;;;;1.90;0.60;;;8.70;99.90;;;-144.05;78.73;57003.88;5016043;28;20030;-80
2023/11/02 08:11:50;;;;;;;1.67;0.60;;;;;;;-144.05;78.42;56997.50;5016097;28;20033;-82
2023/11/02 08:14:17;;;;;;;1.00;0.40;;;15.10;99.90;;;-144.05;78.28;56967.78;4997072;28;20034;-81
2023/11/02 08:16:43;;;;;;;3.95;0.40;;;;;;;-144.05;78.70;56984.78;5015263;28;20033;-81
2023/11/02 08:19:10;;;;;;;2.10;0.43;;;8.10;99.90;;;-144.05;78.96;56976.28;5014652;28;20100;-79
2023/11/02 08:21:36;;;;;;;2.70;0.43;;;;;;;-144.05;79.38;56997.50;5015220;28;20030;-80
2023/11/02 08:24:02;;;;;;;2.22;0.40;;;8.30;99.90;;;-144.05;79.76;56976.28;4997494;28;20036;-78
2023/11/02 08:26:29;;;;;;;0.57;0.47;;;;;;;-144.05;78.30;56993.25;5015181;28;20030;-81
2023/11/02 08:28:55;;;;;;;2.65;0.60;;;;;;;-144.05;78.77;57001.75;5014099;28;20058;-81
2023/11/02 08:31:26;;;;;;;1.25;0.60;;;8.30;99.90;;;-144.05;78.08;56999.63;5014255;28;20030;-79
2023/11/02 08:33:53;;;;;;;1.35;0.38;;;;;;;-144.05;78.43;56961.41;4996970;28;20038;-79
2023/11/02 08:36:28;;;;;;;3.75;0.60;;;14.80;99.90;;;-144.05;78.13;56984.78;5014216;28;20030;-81
2023/11/02 08:38:55;;;;;;;0.75;0.65;;;15.00;99.90;;;-144.05;78.49;57008.13;5013824;28;20128;-80
2023/11/02 08:41:28;;;;;;;2.28;0.75;;;15.60;99.90;;;-144.05;78.35;56944.41;5013966;28;20488;-79
2023/11/02 08:43:56;;;;;;;4.22;0.80;;;;;;;-144.05;77.90;56969.91;4996303;28;20043;-81
2023/11/02 08:46:23;;;;;;;3.60;1.13;;;;;;;-144.05;76.96;56982.66;5013487;28;20061;-80
2023/11/02 08:48:53;;;;;;;1.00;0.50;;;11.60;99.90;;;-144.05;77.22;57001.75;5013633;28;20030;-82
2023/11/02 08:51:22;;;;;;;1.15;0.80;;;11.60;99.90;;;-144.05;76.19;56984.78;5014964;28;20109;-80
2023/11/02 08:53:48;;;;;;;3.00;0.50;;;;;;;-144.05;78.04;56984.78;5014119;28;20507;-81
2023/11/02 08:56:14;;;;;;;1.73;0.50;;;11.60;99.90;;;-144.05;77.77;56991.13;5014196;28;20117;-79
2023/11/02 08:58:48;;;;;;;2.28;0.63;;;15.30;99.90;;;-144.05;77.33;57003.88;5014352;28;20022;-80
2023/11/02 09:01:25;;;;;;;1.17;0.47;;;8.60;99.90;;;-144.05;77.34;56955.03;5014422;28;20033;-81
2023/11/02 09:03:54;;;;;;;2.80;0.50;;;;;;;-144.05;76.74;56976.28;5014056;28;20092;-82
2023/11/02 09:06:23;;;;;;;1.70;0.77;;;8.70;99.90;;;-144.05;76.24;56963.53;5013222;28;20041;-80
2023/11/02 09:08:51;;;;;;;1.70;0.40;;;;;;;-144.05;76.47;56989.00;5014087;28;20092;-80
2023/11/02 09:11:18;;;;;;;2.92;0.68;;;8.20;99.90;;;-144.05;75.45;56972.03;5014660;28;20037;-83
2023/11/02 09:13:45;;;;;;;3.58;0.60;;;12.00;99.90;;;-144.05;75.25;56976.28;5014395;28;20034;-83
2023/11/02 09:16:11;;;;;;;1.63;0.70;;;15.30;99.90;;;-144.05;75.20;56978.41;5013473;28;20361;-81
2023/11/02 09:18:40;;;;;;;1.48;0.63;;;15.30;99.90;;;-144.05;74.56;56991.13;5015074;28;20034;-81
2023/11/02 09:21:08;;;;;;;4.65;0.70;;;12.30;99.90;;;-144.05;74.59;56948.66;4997866;28;20030;-79
2023/11/02 09:23:34;;;;;;;2.03;0.40;;;9.10;99.90;;;-144.05;74.54;56980.53;5014932;28;20029;-81
2023/11/02 09:26:02;;;;;;;2.45;0.85;;;12.30;99.90;;;-144.05;73.73;56982.66;5016482;28;20030;-79
2023/11/02 09:28:29;;;;;;;1.92;0.55;;;;;;;-144.05;74.00;56969.91;5021175;28;20026;-80
2023/11/02 09:30:55;;;;;;;2.45;0.50;;;;;;;-144.05;73.99;56974.16;5018098;28;20151;-82
2023/11/02 09:33:21;;;;;;;1.35;0.60;;;9.20;99.90;;;-144.05;73.10;56959.28;5016377;28;20037;-83
2023/11/02 09:35:47;;;;;;;1.50;0.55;;;9.00;99.90;;;-144.05;73.27;56993.25;5016653;28;20032;-83
2023/11/02 09:38:15;;;;;;;2.33;0.45;;;9.50;99.90;;;-144.05;72.02;56980.53;5016286;28;20022;-80
2023/11/02 09:40:42;;;;;;;2.50;0.85;;;;;;;-144.05;73.32;56959.28;5013204;28;20026;-78
2023/11/02 09:43:08;;;;;;;1.60;0.60;;;9.20;99.90;;;-144.05;72.72;56982.66;5013402;28;20518;-80
2023/11/02 09:45:36;;;;;;;1.15;0.60;;;;;;;-144.05;72.39;56967.78;5013165;28;20034;-80
2023/11/02 09:48:03;;;;;;;2.08;0.47;;;8.90;99.90;;;-144.05;72.90;56986.91;5012595;28;20505;-81
2023/11/02 09:50:29;;;;;;;3.83;0.85;;;;;;;-144.05;72.41;56997.50;5013637;28;20065;-78
2023/11/02 09:52:57;;;;;;;1.10;0.73;;;12.90;99.90;;;-144.05;72.08;56991.13;5013577;28;20061;-81
2023/11/02 09:55:24;;;;;;;0.75;0.60;;;12.90;99.90;;;-144.05;71.62;56965.66;5012337;28;20057;-80
2023/11/02 09:57:51;;;;;;;1.40;0.40;;;9.30;99.90;;;-144.05;71.48;56976.28;5013325;28;20497;-81
2023/11/02 10:00:19;;;;;;;1.80;0.40;;;10.40;99.90;;;-144.05;71.55;56965.66;5013019;28;20072;-79
2023/11/02 10:02:50;;;;;;;1.45;0.50;;;9.30;99.90;;;-144.05;71.75;56984.78;5014023;28;20036;-81
2023/11/02 10:05:17;;;;;;;2.97;0.68;;;13.00;99.90;;;-144.05;71.30;56963.53;5014032;28;20026;-78
2023/11/02 10:07:44;;;;;;;1.80;0.82;;;9.50;99.90;;;-144.05;71.57;56974.16;5014128;28;20425;-84
2023/11/02 10:10:14;;;;;;;2.20;0.45;;;;;;;-144.05;71.20;56984.78;5013856;28;20030;-77
2023/11/02 10:12:43;;;;;;;2.83;0.60;;;;;;;-144.05;71.18;56969.91;5014457;28;20091;-78
2023/11/02 10:15:13;;;;;;;2.67;0.50;;;15.60;99.90;;;-144.05;70.38;56982.66;5013438;28;20518;-81
2023/11/02 10:17:40;;;;;;;0.90;0.40;;;;;;;-144.05;70.00;56976.28;5013922;28;20053;-80
2023/11/02 10:20:13;;;;;;;3.03;0.45;;;15.70;99.90;;;-144.05;69.97;56969.91;5013701;28;20054;-79
2023/11/02 10:22:42;;;;;;;1.77;0.70;;;13.20;99.90;;;-144.05;69.36;57003.88;5013228;28;20112;-78
2023/11/02 10:25:13;;;;;;;2.55;0.50;;;13.20;99.90;;;-144.05;69.71;56946.53;5013341;28;20080;-81
2023/11/02 10:27:44;;;;;;;1.52;0.60;;;13.30;99.90;;;-144.05;69.17;56995.38;5016112;28;20021;-79
2023/11/02 10:30:12;;;;;;;2.85;0.50;;;9.90;99.90;;;-144.05;69.04;56961.41;5016600;28;20022;-81
2023/11/02 10:32:38;;;;;;;3.03;0.60;;;10.50;99.90;;;-144.05;68.91;56982.66;5017117;28;20026;-78
2023/11/02 10:35:07;;;;;;;5.10;0.65;;;15.70;99.90;;;-144.05;69.11;56997.50;5017344;28;20025;-80
2023/11/02 10:37:36;;;;;;;1.90;0.40;;;13.40;99.90;;;-144.05;68.59;56976.28;5017102;28;20052;-80
2023/11/02 10:40:04;;;;;;;2.22;0.70;;;10.50;99.90;;;-144.05;68.08;56993.25;5017044;28;20518;-81
2023/11/02 10:42:31;;;;;;;1.45;0.70;;;;;;;-144.05;67.14;56980.53;5018107;28;20088;-82
2023/11/02 10:44:58;;;;;;;3.78;0.82;;;10.10;99.90;;;-144.05;66.63;57008.13;5018975;28;20030;-80
2023/11/02 10:47:30;;;;;;;3.05;0.65;;;9.70;99.90;;;-144.05;66.75;56950.78;5018660;28;20022;-80
2023/11/02 10:49:59;;;;;;;7.60;1.55;;;10.30;99.90;;;-144.05;66.05;56957.16;5017412;28;20442;-76
2023/11/02 10:52:38;;;;;;;3.38;0.70;;;10.80;99.90;;;-144.05;65.88;56984.78;5016085;28;20144;-79